Time;durP1;ratioP1;P1;durP2;ratioP2;P2;SDS_P1;SDS_P2;PMS_P1;PMS_P2;Temp;Humidity;BMP_temperature;BMP_pressure;BME280_temperature;BME280_humidity;BME280_pressure;Samples;Min_cycle;Max_cycle;Signal;HPM_P1;HPM_P2
2021/12/12 00:00:45;;;;;;;26.67;11.63;;;3.80;99.90;;;;;;5018893;28;20362;-63
2021/12/12 00:03:31;;;;;;;22.45;10.80;;;3.60;99.90;;;;;;5017769;28;20037;-63
2021/12/12 00:05:57;;;;;;;29.17;11.68;;;3.70;99.90;;;;;;5016288;28;20049;-63
2021/12/12 00:08:26;;;;;;;26.55;10.98;;;3.70;99.90;;;;;;5013111;28;20033;-63
2021/12/12 00:10:59;;;;;;;18.65;11.25;;;3.70;99.90;;;;;;5010971;28;20053;-63
2021/12/12 00:13:45;;;;;;;25.65;11.23;;;3.70;99.90;;;;;;5014046;28;20046;-63
2021/12/12 00:16:12;;;;;;;21.95;10.00;;;3.60;99.90;;;;;;5017861;28;20056;-63
2021/12/12 00:18:38;;;;;;;22.73;11.60;;;3.70;99.90;;;;;;5013664;28;20406;-64
2021/12/12 00:21:05;;;;;;;23.95;11.00;;;3.60;99.90;;;;;;5012760;28;20068;-63
2021/12/12 00:23:31;;;;;;;27.55;11.18;;;3.70;99.90;;;;;;5016286;28;20040;-63
2021/12/12 00:25:58;;;;;;;22.42;11.10;;;3.60;99.90;;;;;;5016587;28;20498;-63
2021/12/12 00:28:26;;;;;;;31.45;12.20;;;3.70;99.90;;;;;;5019631;28;20103;-63
2021/12/12 00:30:56;;;;;;;25.60;11.85;;;3.70;99.90;;;;;;5015827;28;21108;-63
2021/12/12 00:33:23;;;;;;;26.65;11.98;;;3.70;99.90;;;;;;5011555;28;20371;-64
2021/12/12 00:35:49;;;;;;;26.40;12.80;;;3.80;99.90;;;;;;5019720;28;20053;-63
2021/12/12 00:38:22;;;;;;;27.40;12.43;;;3.90;99.90;;;;;;5014565;28;20088;-63
2021/12/12 00:40:50;;;;;;;;;;;3.90;99.90;;;;;;5015171;28;20034;-63
2021/12/12 00:43:28;;;;;;;24.98;12.38;;;3.80;99.90;;;;;;5011069;28;20138;-63
2021/12/12 00:45:57;;;;;;;28.02;12.13;;;3.80;99.90;;;;;;5011918;28;20052;-63
2021/12/12 00:48:26;;;;;;;27.42;13.13;;;3.80;99.90;;;;;;5009742;28;20045;-63
2021/12/12 00:50:52;;;;;;;27.65;13.60;;;3.80;99.90;;;;;;5015691;28;20060;-63
2021/12/12 00:53:20;;;;;;;28.40;12.63;;;3.90;99.90;;;;;;5016641;28;20128;-64
2021/12/12 00:55:47;;;;;;;30.10;13.35;;;3.90;99.90;;;;;;5011912;28;20033;-63
2021/12/12 00:58:15;;;;;;;28.10;13.00;;;3.90;99.90;;;;;;5012228;28;20135;-64
2021/12/12 01:00:54;;;;;;;26.42;12.65;;;3.90;99.90;;;;;;5014191;28;20394;-64
2021/12/12 01:03:34;;;;;;;19.83;12.18;;;3.80;99.90;;;;;;5013806;28;20046;-63
2021/12/12 01:06:02;;;;;;;24.70;12.88;;;3.80;99.90;;;;;;5011551;28;20489;-64
2021/12/12 01:08:28;;;;;;;29.67;12.73;;;3.90;99.90;;;;;;5015281;28;20045;-63
2021/12/12 01:11:18;;;;;;;26.35;12.50;;;4.00;99.90;;;;;;5012848;28;20063;-63
2021/12/12 01:13:46;;;;;;;27.55;12.90;;;4.00;99.90;;;;;;5014286;28;20473;-63
2021/12/12 01:16:23;;;;;;;28.67;13.32;;;4.10;99.90;;;;;;5014421;28;20393;-63
2021/12/12 01:19:06;;;;;;;25.70;12.23;;;4.00;99.90;;;;;;5013741;28;20041;-63
2021/12/12 01:21:38;;;;;;;23.03;9.33;;;4.00;99.90;;;;;;5020097;28;20438;-63
2021/12/12 01:24:15;;;;;;;27.75;12.18;;;4.00;99.90;;;;;;5014165;28;20044;-63
2021/12/12 01:26:41;;;;;;;27.88;12.13;;;4.10;99.90;;;;;;5012152;28;20042;-63
2021/12/12 01:29:08;;;;;;;21.88;11.25;;;4.10;99.90;;;;;;5010800;28;20147;-64
2021/12/12 01:31:39;;;;;;;20.58;11.23;;;4.00;99.90;;;;;;5007861;28;20038;-63
2021/12/12 01:34:13;;;;;;;27.10;12.63;;;4.00;99.90;;;;;;5008894;28;20508;-64
2021/12/12 01:39:44;;;;;;;22.60;11.27;;;4.10;99.90;;;;;;5003665;28;20041;-64
2021/12/12 01:42:21;;;;;;;22.52;12.02;;;4.10;99.90;;;;;;5011019;28;20052;-64
2021/12/12 01:44:57;;;;;;;23.38;11.45;;;4.20;99.90;;;;;;5011269;28;20049;-64
2021/12/12 01:47:31;;;;;;;23.08;10.23;;;4.20;99.90;;;;;;5006700;28;20589;-64
2021/12/12 01:50:02;;;;;;;24.35;10.70;;;4.20;99.90;;;;;;5009055;28;20037;-64
2021/12/12 01:52:30;;;;;;;19.70;10.10;;;4.20;99.90;;;;;;5015419;28;20060;-64
2021/12/12 01:55:04;;;;;;;18.83;10.35;;;4.20;99.90;;;;;;5005536;28;20045;-63
2021/12/12 01:57:34;;;;;;;20.20;9.80;;;4.20;99.90;;;;;;5008995;28;20067;-64
2021/12/12 02:00:06;;;;;;;19.27;9.43;;;4.30;99.90;;;;;;5013165;28;20135;-64
2021/12/12 02:02:33;;;;;;;18.13;9.18;;;4.30;99.90;;;;;;5011587;28;20151;-63
2021/12/12 02:05:05;;;;;;;23.27;9.05;;;4.30;99.90;;;;;;5013476;28;20413;-64
2021/12/12 02:07:35;;;;;;;18.52;8.43;;;4.30;99.90;;;;;;5008272;28;20428;-63
2021/12/12 02:10:17;;;;;;;13.15;8.20;;;4.30;99.90;;;;;;5007285;28;20037;-63
2021/12/12 02:12:44;;;;;;;17.75;8.60;;;4.30;99.90;;;;;;5008265;28;20599;-64
2021/12/12 02:15:11;;;;;;;17.05;7.65;;;4.30;99.90;;;;;;5011342;28;20121;-64
2021/12/12 02:17:43;;;;;;;20.40;8.60;;;4.30;99.90;;;;;;5017464;28;20025;-63
2021/12/12 02:20:41;;;;;;;21.88;7.75;;;4.30;99.90;;;;;;5009208;28;20136;-63
2021/12/12 02:36:43;;;;;;;17.75;7.40;;;4.40;99.90;;;;;;5015112;28;20049;-64
2021/12/12 02:39:16;;;;;;;18.33;7.43;;;4.40;99.90;;;;;;5014050;28;20509;-63
2021/12/12 02:41:51;;;;;;;11.90;5.25;;;4.40;99.90;;;;;;5008034;28;20501;-63
2021/12/12 02:44:21;;;;;;;12.63;6.07;;;4.40;99.90;;;;;;5008844;28;20670;-64
2021/12/12 02:46:49;;;;;;;15.10;6.60;;;4.40;99.90;;;;;;5007667;28;20029;-63
2021/12/12 02:51:59;;;;;;;11.85;6.30;;;4.50;99.90;;;;;;5007899;28;20065;-63
2021/12/12 02:54:25;;;;;;;16.30;6.40;;;4.50;99.90;;;;;;5012968;28;20033;-64
2021/12/12 02:56:51;;;;;;;15.45;6.20;;;4.50;99.90;;;;;;5013444;28;21060;-63
2021/12/12 02:59:20;;;;;;;13.70;6.20;;;4.50;99.90;;;;;;5017821;28;20034;-64
2021/12/12 03:01:57;;;;;;;15.25;6.35;;;4.50;99.90;;;;;;5013464;28;20048;-64
2021/12/12 03:04:24;;;;;;;14.60;6.07;;;4.50;99.90;;;;;;5012046;28;20041;-64
2021/12/12 03:06:51;;;;;;;12.68;5.95;;;4.50;99.90;;;;;;5015312;28;20038;-64
2021/12/12 03:09:23;;;;;;;16.40;6.70;;;4.60;99.90;;;;;;5017414;28;20049;-63
2021/12/12 03:11:53;;;;;;;15.03;6.67;;;4.70;99.90;;;;;;5013767;28;20181;-63
2021/12/12 03:14:19;;;;;;;16.88;7.13;;;4.70;99.90;;;;;;5016653;28;20030;-63
2021/12/12 03:16:46;;;;;;;18.00;6.82;;;4.60;99.90;;;;;;5017980;28;20037;-63
2021/12/12 03:19:12;;;;;;;16.63;6.95;;;4.60;99.90;;;;;;5011600;28;20041;-64
2021/12/12 03:21:42;;;;;;;14.85;6.88;;;4.60;99.90;;;;;;5009096;28;20030;-63
2021/12/12 03:24:20;;;;;;;16.27;7.63;;;4.60;99.90;;;;;;5018657;28;20033;-63
2021/12/12 03:26:50;;;;;;;19.58;7.90;;;4.70;99.90;;;;;;5014644;28;20065;-63
2021/12/12 03:29:16;;;;;;;20.02;8.07;;;4.70;99.90;;;;;;5030393;28;20554;-63
2021/12/12 03:31:46;;;;;;;15.52;7.18;;;4.70;99.90;;;;;;5017464;28;20036;-63
2021/12/12 03:34:15;;;;;;;19.80;7.28;;;4.70;99.90;;;;;;5014577;28;20026;-64
2021/12/12 03:36:43;;;;;;;17.77;7.40;;;4.80;99.90;;;;;;5018896;28;20080;-64
2021/12/12 03:39:24;;;;;;;16.80;7.82;;;4.70;99.90;;;;;;5015249;28;20076;-64
2021/12/12 03:41:51;;;;;;;20.90;7.70;;;4.60;99.90;;;;;;5007580;28;20076;-63
2021/12/12 03:44:20;;;;;;;16.42;7.40;;;4.60;99.90;;;;;;5011714;28;20682;-63
2021/12/12 03:46:49;;;;;;;18.38;7.43;;;4.70;99.90;;;;;;5017185;28;20438;-63
2021/12/12 03:49:16;;;;;;;20.00;7.22;;;4.70;99.90;;;;;;5011371;28;20729;-63
2021/12/12 03:51:43;;;;;;;17.20;7.70;;;4.70;99.90;;;;;;5009806;28;20557;-63
2021/12/12 03:54:09;;;;;;;20.55;8.32;;;4.80;99.90;;;;;;5014226;28;20431;-63
2021/12/12 03:56:35;;;;;;;22.88;7.70;;;4.80;99.90;;;;;;5009116;28;20515;-64
2021/12/12 03:59:01;;;;;;;16.55;8.30;;;4.80;99.90;;;;;;5010790;28;20030;-64
2021/12/12 04:01:35;;;;;;;17.83;7.97;;;4.80;99.90;;;;;;5011934;28;20490;-63
2021/12/12 04:04:10;;;;;;;18.85;8.15;;;4.60;99.90;;;;;;5010175;28;20096;-63
2021/12/12 04:06:35;;;;;;;22.90;8.63;;;4.60;99.90;;;;;;5008305;28;20111;-63
2021/12/12 04:09:04;;;;;;;17.13;9.05;;;4.70;99.90;;;;;;5009517;28;21472;-63
2021/12/12 04:11:37;;;;;;;19.42;8.57;;;4.80;99.90;;;;;;5017302;28;20040;-63
2021/12/12 04:14:04;;;;;;;22.45;8.98;;;4.80;99.90;;;;;;5010824;28;20612;-63
2021/12/12 04:16:33;;;;;;;20.08;9.95;;;4.80;99.90;;;;;;5017106;28;20513;-63
2021/12/12 04:18:59;;;;;;;17.83;8.88;;;4.80;99.90;;;;;;5015657;28;20029;-63
2021/12/12 04:21:26;;;;;;;22.27;9.52;;;4.80;99.90;;;;;;5009773;28;20040;-63
2021/12/12 04:23:53;;;;;;;25.40;10.35;;;4.80;99.90;;;;;;5007033;28;20056;-63
2021/12/12 04:26:19;;;;;;;23.73;12.02;;;4.70;99.90;;;;;;5008111;28;20041;-64
2021/12/12 04:28:55;;;;;;;24.73;12.43;;;4.80;99.90;;;;;;5014802;28;20049;-63
2021/12/12 04:31:21;;;;;;;25.25;13.77;;;4.80;99.90;;;;;;5005053;28;20527;-63
2021/12/12 04:33:46;;;;;;;27.60;14.52;;;4.80;99.90;;;;;;5013530;28;20120;-63
2021/12/12 04:36:12;;;;;;;32.80;16.52;;;4.80;99.90;;;;;;5016314;28;20798;-63
2021/12/12 04:38:38;;;;;;;29.02;17.33;;;4.80;99.90;;;;;;5019762;28;20369;-63
2021/12/12 04:41:03;;;;;;;32.35;17.95;;;4.80;99.90;;;;;;5016725;28;20100;-63
2021/12/12 04:43:29;;;;;;;35.42;18.92;;;4.90;99.90;;;;;;5007951;28;20518;-63
2021/12/12 04:46:08;;;;;;;36.78;19.25;;;4.90;99.90;;;;;;5009658;28;20765;-63
2021/12/12 04:51:36;;;;;;;32.08;17.25;;;4.80;99.90;;;;;;5013030;28;20052;-63
2021/12/12 04:54:26;;;;;;;22.30;12.90;;;4.90;99.90;;;;;;5012335;28;20059;-63
2021/12/12 04:57:07;;;;;;;31.42;15.85;;;4.90;99.90;;;;;;5010303;28;20129;-63
2021/12/12 04:59:44;;;;;;;29.30;15.80;;;4.90;99.90;;;;;;5004502;28;20029;-63
2021/12/12 05:02:18;;;;;;;30.25;15.05;;;4.90;99.90;;;;;;5004670;28;20037;-64
2021/12/12 05:04:59;;;;;;;26.80;14.00;;;5.00;99.90;;;;;;5014123;28;20025;-63
2021/12/12 05:07:41;;;;;;;31.17;14.80;;;4.90;99.90;;;;;;5013789;28;20030;-63
2021/12/12 05:10:17;;;;;;;30.65;13.57;;;4.90;99.90;;;;;;5011658;28;20030;-63
2021/12/12 05:12:48;;;;;;;28.90;13.45;;;4.80;99.90;;;;;;5011081;28;20080;-64
2021/12/12 05:15:18;;;;;;;29.85;14.57;;;4.90;99.90;;;;;;5008522;28;20447;-63
2021/12/12 05:18:13;;;;;;;34.53;14.48;;;4.90;99.90;;;;;;5009045;28;20049;-63
2021/12/12 05:20:43;;;;;;;27.73;14.23;;;4.90;99.90;;;;;;5011403;28;20084;-63
2021/12/12 05:23:14;;;;;;;24.83;13.63;;;5.00;99.90;;;;;;5006084;28;20136;-63
2021/12/12 05:26:11;;;;;;;31.38;13.43;;;5.00;99.90;;;;;;5008971;28;20033;-64
2021/12/12 05:28:49;;;;;;;27.63;13.57;;;4.90;99.90;;;;;;5006428;28;20116;-63
2021/12/12 05:31:18;;;;;;;23.42;12.43;;;4.90;99.90;;;;;;5009980;28;20114;-64
2021/12/12 05:33:45;;;;;;;24.50;12.30;;;4.90;99.90;;;;;;5013246;28;20038;-63
2021/12/12 05:36:13;;;;;;;28.48;13.23;;;4.90;99.90;;;;;;5009463;28;20049;-63
2021/12/12 05:38:39;;;;;;;28.63;12.85;;;4.90;99.90;;;;;;5012225;28;20043;-63
2021/12/12 05:41:06;;;;;;;20.90;12.20;;;5.00;99.90;;;;;;5012928;28;20029;-63
2021/12/12 05:43:33;;;;;;;25.30;11.63;;;5.10;99.90;;;;;;5004459;28;20107;-63
2021/12/12 05:46:01;;;;;;;23.85;12.60;;;5.00;99.90;;;;;;5015801;28;20045;-63
2021/12/12 05:48:28;;;;;;;26.55;12.50;;;5.00;99.90;;;;;;5008119;28;20143;-63
2021/12/12 05:50:55;;;;;;;27.25;11.50;;;5.00;99.90;;;;;;5016542;28;20034;-63
2021/12/12 05:53:21;;;;;;;24.10;12.15;;;4.90;99.90;;;;;;5009185;28;20072;-64
2021/12/12 05:55:48;;;;;;;27.42;11.98;;;5.00;99.90;;;;;;5012836;28;20041;-63
2021/12/12 05:58:18;;;;;;;26.88;12.25;;;5.00;99.90;;;;;;5009217;28;20072;-63
2021/12/12 06:00:59;;;;;;;28.73;12.40;;;5.00;99.90;;;;;;5007969;28;20091;-63
2021/12/12 06:03:28;;;;;;;27.48;12.25;;;5.00;99.90;;;;;;5010514;28;20103;-63
2021/12/12 06:05:56;;;;;;;26.35;11.57;;;5.10;99.90;;;;;;5010611;28;20033;-63
2021/12/12 06:08:23;;;;;;;28.70;11.73;;;5.00;99.90;;;;;;5011087;28;20420;-63
2021/12/12 06:10:50;;;;;;;25.63;12.13;;;5.10;99.90;;;;;;5013470;28;20468;-63
2021/12/12 06:13:17;;;;;;;25.30;12.45;;;5.10;99.90;;;;;;5009972;28;20525;-63
2021/12/12 06:15:45;;;;;;;21.98;11.38;;;5.00;99.90;;;;;;5008505;28;20427;-63
2021/12/12 06:18:12;;;;;;;26.65;11.93;;;5.00;99.90;;;;;;5015016;28;20109;-63
2021/12/12 06:20:40;;;;;;;24.50;12.60;;;5.10;99.90;;;;;;5007855;28;20251;-63
2021/12/12 06:23:08;;;;;;;25.08;13.23;;;5.10;99.90;;;;;;5007308;28;20063;-63
2021/12/12 06:25:35;;;;;;;26.15;11.82;;;5.10;99.90;;;;;;5016594;28;20436;-63
2021/12/12 06:28:06;;;;;;;22.08;11.98;;;5.20;99.90;;;;;;5010693;28;20466;-63
2021/12/12 06:30:31;;;;;;;26.65;12.98;;;5.10;99.90;;;;;;5008309;28;20140;-63
2021/12/12 06:32:57;;;;;;;27.65;11.98;;;5.10;99.90;;;;;;5014117;28;20120;-63
2021/12/12 06:35:23;;;;;;;21.67;11.32;;;5.10;99.90;;;;;;5011422;28;20038;-63
2021/12/12 06:37:50;;;;;;;22.25;11.55;;;5.20;99.90;;;;;;5014034;28;20053;-63
2021/12/12 06:40:20;;;;;;;25.05;12.35;;;5.20;99.90;;;;;;5015239;28;20033;-63
2021/12/12 06:42:48;;;;;;;24.45;12.77;;;5.30;99.90;;;;;;5019138;28;20030;-63
2021/12/12 06:45:15;;;;;;;22.92;12.10;;;5.20;99.90;;;;;;5011712;28;20552;-63
2021/12/12 06:47:41;;;;;;;22.10;11.93;;;5.20;99.90;;;;;;5014029;28;20088;-63
2021/12/12 06:50:09;;;;;;;20.63;11.85;;;5.30;99.90;;;;;;5013460;28;20030;-63
2021/12/12 06:52:36;;;;;;;20.77;12.10;;;5.30;99.90;;;;;;5013349;28;20025;-63
2021/12/12 06:55:06;;;;;;;18.35;12.48;;;5.30;99.90;;;;;;5016089;28;20345;-63
2021/12/12 06:57:32;;;;;;;20.63;12.13;;;5.30;99.90;;;;;;5013613;28;20117;-63
2021/12/12 06:59:58;;;;;;;21.52;11.88;;;5.30;99.90;;;;;;5010194;28;20124;-63
2021/12/12 07:02:23;;;;;;;23.58;12.15;;;5.40;99.90;;;;;;5019565;28;20044;-63
2021/12/12 07:04:50;;;;;;;19.25;12.27;;;5.30;99.90;;;;;;5014217;28;20092;-63
2021/12/12 07:07:16;;;;;;;23.33;12.82;;;5.30;99.90;;;;;;5017712;28;20061;-63
2021/12/12 07:09:45;;;;;;;28.20;13.82;;;5.40;99.90;;;;;;5011037;28;20112;-63
2021/12/12 07:12:13;;;;;;;23.00;12.95;;;5.40;99.90;;;;;;5017391;28;20029;-63
2021/12/12 07:14:40;;;;;;;25.67;12.75;;;5.50;99.90;;;;;;5012213;28;20117;-64
2021/12/12 07:17:07;;;;;;;29.00;13.40;;;5.40;99.90;;;;;;5011213;28;20048;-64
2021/12/12 07:19:33;;;;;;;23.50;13.35;;;5.50;99.90;;;;;;5009275;28;20040;-63
2021/12/12 07:22:00;;;;;;;23.55;12.52;;;5.40;99.90;;;;;;5012316;28;20436;-63
2021/12/12 07:24:27;;;;;;;22.13;12.38;;;5.40;99.90;;;;;;5017189;28;20427;-63
2021/12/12 07:26:53;;;;;;;22.42;13.60;;;5.40;99.90;;;;;;5010145;28;20474;-63
2021/12/12 07:29:19;;;;;;;25.83;13.48;;;5.50;99.90;;;;;;5018693;28;20065;-63
2021/12/12 07:31:47;;;;;;;25.27;14.35;;;5.50;99.90;;;;;;5012800;28;20418;-63
2021/12/12 07:34:15;;;;;;;24.85;15.00;;;5.50;99.90;;;;;;5006578;28;20046;-63
2021/12/12 07:36:48;;;;;;;21.70;12.90;;;5.50;99.90;;;;;;5006974;28;20450;-63
2021/12/12 07:39:14;;;;;;;;;;;5.60;99.90;;;;;;5011338;28;20037;-63
2021/12/12 07:41:43;;;;;;;26.25;13.75;;;5.60;99.90;;;;;;5018818;28;19921;-63
2021/12/12 07:44:11;;;;;;;23.48;13.77;;;5.60;99.90;;;;;;5009739;28;21067;-64
2021/12/12 07:46:37;;;;;;;23.55;13.20;;;5.60;99.90;;;;;;5009263;28;20105;-63
2021/12/12 07:49:04;;;;;;;25.55;13.50;;;5.60;99.90;;;;;;5013610;28;20032;-63
2021/12/12 07:51:31;;;;;;;22.80;13.15;;;5.50;99.90;;;;;;5006549;28;20029;-63
2021/12/12 07:53:59;;;;;;;24.70;13.65;;;5.60;99.90;;;;;;5013655;28;20478;-64
2021/12/12 07:56:28;;;;;;;25.10;13.82;;;5.70;99.90;;;;;;5013238;28;20029;-64
2021/12/12 07:58:56;;;;;;;23.42;14.15;;;5.70;99.90;;;;;;5011649;28;20086;-63
2021/12/12 08:01:22;;;;;;;20.67;13.15;;;5.70;99.90;;;;;;5006188;28;20421;-63
2021/12/12 08:03:52;;;;;;;26.10;14.48;;;5.70;99.90;;;;;;5016013;28;20427;-63
2021/12/12 08:06:18;;;;;;;23.20;13.57;;;5.70;99.90;;;;;;5016440;28;20052;-63
2021/12/12 08:08:44;;;;;;;26.75;14.52;;;5.80;99.90;;;;;;5011324;28;20030;-63
2021/12/12 08:11:14;;;;;;;25.98;14.95;;;5.80;99.90;;;;;;5008174;28;20069;-63
2021/12/12 08:13:39;;;;;;;28.30;14.68;;;5.90;99.90;;;;;;5019282;28;20041;-63
2021/12/12 08:16:09;;;;;;;26.25;14.48;;;5.90;99.90;;;;;;5012934;28;20060;-63
2021/12/12 08:18:37;;;;;;;24.58;14.82;;;5.80;99.90;;;;;;5012533;28;20091;-63
2021/12/12 08:21:04;;;;;;;25.48;14.93;;;5.70;99.90;;;;;;5008919;28;20042;-64
2021/12/12 08:23:30;;;;;;;24.90;14.68;;;5.80;99.90;;;;;;5016833;28;20349;-63
2021/12/12 08:25:57;;;;;;;26.05;14.45;;;5.80;99.90;;;;;;5014684;28;20121;-63
2021/12/12 08:28:23;;;;;;;25.90;14.10;;;5.80;99.90;;;;;;5014372;28;20555;-63
2021/12/12 08:30:50;;;;;;;21.67;13.88;;;5.80;99.90;;;;;;5015568;28;20632;-63
2021/12/12 08:33:16;;;;;;;23.00;13.20;;;6.00;99.90;;;;;;5018577;28;20547;-63
2021/12/12 08:35:44;;;;;;;26.52;14.02;;;6.00;99.90;;;;;;5009765;28;20727;-64
2021/12/12 08:38:11;;;;;;;23.58;14.93;;;6.10;99.90;;;;;;5011869;28;20501;-64
2021/12/12 08:40:50;;;;;;;22.80;13.90;;;6.10;99.90;;;;;;5012481;28;20052;-63
2021/12/12 08:43:19;;;;;;;24.05;14.70;;;6.20;99.90;;;;;;5008995;28;20941;-63
2021/12/12 08:45:48;;;;;;;25.90;14.40;;;6.20;99.90;;;;;;5013362;28;20155;-63
2021/12/12 08:48:16;;;;;;;22.45;13.35;;;6.20;99.90;;;;;;5018620;28;20042;-63
2021/12/12 08:50:44;;;;;;;23.85;13.93;;;6.10;99.90;;;;;;5012601;28;20188;-63
2021/12/12 08:53:11;;;;;;;24.00;13.35;;;6.10;99.90;;;;;;5013484;28;20038;-63
2021/12/12 08:55:43;;;;;;;19.10;12.70;;;6.10;99.90;;;;;;5014572;28;20029;-63
2021/12/12 08:58:17;;;;;;;21.95;13.23;;;6.20;99.90;;;;;;5009228;28;20056;-63
2021/12/12 09:00:50;;;;;;;26.40;14.43;;;6.20;99.90;;;;;;5017273;28;20509;-63
2021/12/12 09:03:23;;;;;;;25.13;13.88;;;6.20;99.90;;;;;;5011743;28;20389;-64
2021/12/12 09:05:49;;;;;;;;;;;6.20;99.90;;;;;;5015492;28;20041;-65
2021/12/12 09:08:23;;;;;;;19.75;12.80;;;6.10;99.90;;;;;;5016462;28;19918;-65
2021/12/12 09:11:21;;;;;;;22.23;12.48;;;6.20;99.90;;;;;;5012638;28;20107;-65
2021/12/12 09:14:00;;;;;;;23.65;13.05;;;6.30;99.90;;;;;;5012374;28;20049;-65
2021/12/12 09:16:48;;;;;;;19.38;12.73;;;6.20;99.90;;;;;;5012568;28;20568;-65
2021/12/12 09:19:19;;;;;;;21.65;12.45;;;6.30;99.90;;;;;;5001473;28;20042;-65
2021/12/12 09:21:54;;;;;;;17.85;11.90;;;6.20;99.90;;;;;;5016699;28;20036;-65
2021/12/12 09:24:26;;;;;;;20.77;11.75;;;6.30;99.90;;;;;;5008305;28;20045;-65
2021/12/12 09:26:55;;;;;;;20.52;12.10;;;6.30;99.90;;;;;;5012710;28;20066;-65
2021/12/12 09:29:35;;;;;;;20.40;12.27;;;6.30;99.90;;;;;;5009775;28;20080;-65
2021/12/12 09:32:06;;;;;;;19.92;11.18;;;6.40;99.90;;;;;;5013731;28;20037;-65
2021/12/12 09:34:38;;;;;;;20.25;11.45;;;6.40;99.90;;;;;;5012890;28;20026;-65
2021/12/12 09:37:30;;;;;;;18.27;11.13;;;6.50;99.90;;;;;;5002043;28;20162;-65
2021/12/12 09:40:24;;;;;;;20.65;10.77;;;6.60;99.90;;;;;;5016306;28;20143;-65
2021/12/12 09:43:11;;;;;;;23.63;11.35;;;6.50;99.90;;;;;;5014817;28;20178;-66
2021/12/12 09:45:36;;;;;;;22.42;10.95;;;6.60;99.90;;;;;;5009050;28;20038;-65
2021/12/12 09:51:45;;;;;;;16.05;10.18;;;6.50;99.90;;;;;;5005109;28;20064;-65
2021/12/12 09:54:15;;;;;;;16.38;10.55;;;6.50;99.90;;;;;;5019229;28;20269;-65
2021/12/12 09:56:43;;;;;;;19.33;10.32;;;6.50;99.90;;;;;;5015230;28;20086;-66
2021/12/12 09:59:39;;;;;;;15.48;9.93;;;6.50;99.90;;;;;;5015002;28;20725;-65
2021/12/12 10:02:14;;;;;;;17.35;10.60;;;6.60;99.90;;;;;;5008029;28;20760;-65
2021/12/12 10:05:14;;;;;;;20.67;9.73;;;6.70;99.90;;;;;;5014432;28;20610;-65
2021/12/12 10:07:54;;;;;;;20.80;10.75;;;6.80;99.90;;;;;;5014006;28;20083;-65
2021/12/12 10:10:34;;;;;;;16.42;10.43;;;6.80;99.90;;;;;;5004593;28;20045;-65
2021/12/12 10:13:16;;;;;;;18.33;9.85;;;6.80;99.90;;;;;;5015008;28;20033;-65
2021/12/12 10:15:51;;;;;;;14.43;7.28;;;6.80;99.90;;;;;;5012706;28;20461;-65
2021/12/12 10:18:50;;;;;;;15.27;9.90;;;6.70;99.90;;;;;;5006641;28;20037;-65
2021/12/12 10:21:28;;;;;;;14.02;9.00;;;6.70;99.90;;;;;;5024505;28;20084;-65
2021/12/12 10:24:29;;;;;;;17.48;9.65;;;6.70;99.90;;;;;;5006492;28;20310;-65
2021/12/12 10:27:26;;;;;;;16.35;9.68;;;6.70;99.90;;;;;;5013700;28;20036;-65
2021/12/12 10:30:08;;;;;;;19.52;9.57;;;6.80;99.90;;;;;;5011811;28;20038;-65
2021/12/12 10:32:50;;;;;;;19.77;9.93;;;6.80;99.90;;;;;;5009758;28;20057;-65
2021/12/12 10:35:22;;;;;;;15.27;9.57;;;6.80;99.90;;;;;;5008705;28;20095;-65
2021/12/12 10:38:02;;;;;;;16.40;10.23;;;6.90;99.90;;;;;;5009368;28;20699;-65
2021/12/12 10:40:51;;;;;;;17.30;9.80;;;7.10;99.90;;;;;;5010653;28;20087;-65
2021/12/12 10:43:24;;;;;;;15.68;9.93;;;7.10;99.90;;;;;;5009894;28;20401;-65
2021/12/12 10:45:58;;;;;;;16.90;10.55;;;7.10;99.90;;;;;;5014066;28;20118;-65
2021/12/12 10:48:28;;;;;;;;;;;7.00;99.90;;;;;;5012503;28;20037;-65
2021/12/12 10:51:10;;;;;;;17.55;10.50;;;7.10;99.90;;;;;;5012284;28;20324;-65
2021/12/12 10:54:00;;;;;;;17.80;10.98;;;7.20;99.90;;;;;;5014435;28;20053;-65
2021/12/12 10:56:34;;;;;;;15.18;10.10;;;7.20;99.90;;;;;;5010946;28;20045;-65
2021/12/12 10:59:14;;;;;;;20.60;11.30;;;7.30;99.90;;;;;;5017326;28;20034;-65
2021/12/12 11:01:44;;;;;;;17.30;10.70;;;7.20;99.90;;;;;;5016390;28;20060;-65
2021/12/12 11:04:11;;;;;;;16.75;11.13;;;7.10;99.90;;;;;;5012179;28;20053;-64
2021/12/12 11:06:46;;;;;;;19.05;11.25;;;7.20;99.90;;;;;;5017969;28;20036;-65
2021/12/12 11:09:27;;;;;;;15.75;10.60;;;7.20;99.90;;;;;;5007511;28;20082;-65
2021/12/12 11:11:59;;;;;;;18.77;10.52;;;7.30;99.90;;;;;;5012327;28;20133;-65
2021/12/12 11:14:38;;;;;;;19.08;11.68;;;7.30;99.90;;;;;;5008377;28;20029;-65
2021/12/12 11:17:09;;;;;;;20.15;10.20;;;7.30;99.90;;;;;;5014277;28;20630;-65
2021/12/12 11:19:41;;;;;;;18.17;10.80;;;7.30;99.90;;;;;;5013135;28;20470;-65
2021/12/12 11:22:36;;;;;;;18.55;11.48;;;7.50;99.90;;;;;;5016306;28;20067;-65
2021/12/12 11:25:24;;;;;;;19.08;11.00;;;7.50;99.90;;;;;;5011470;28;20526;-65
2021/12/12 11:28:11;;;;;;;17.48;11.18;;;7.40;99.90;;;;;;5019375;28;20033;-65
2021/12/12 11:30:55;;;;;;;19.60;12.00;;;7.50;99.90;;;;;;4997652;28;20053;-64
2021/12/12 11:33:23;;;;;;;19.23;11.63;;;7.40;99.90;;;;;;5013979;28;20037;-64
2021/12/12 11:35:54;;;;;;;22.27;12.45;;;7.40;99.90;;;;;;5013060;28;20030;-64
2021/12/12 11:38:38;;;;;;;20.10;12.20;;;7.40;99.90;;;;;;5016884;28;20517;-65
2021/12/12 11:41:20;;;;;;;16.63;11.23;;;7.30;99.90;;;;;;5012889;28;20033;-64
2021/12/12 11:43:56;;;;;;;17.20;11.57;;;7.30;99.90;;;;;;5015157;28;20038;-64
2021/12/12 11:46:49;;;;;;;19.85;11.32;;;7.40;99.90;;;;;;5007944;28;20144;-64
2021/12/12 11:49:29;;;;;;;19.50;11.68;;;7.40;99.90;;;;;;5019666;28;20025;-64
2021/12/12 11:52:01;;;;;;;19.73;10.60;;;7.40;99.90;;;;;;5012687;28;20042;-64
2021/12/12 11:54:46;;;;;;;15.30;10.43;;;7.50;99.90;;;;;;5008389;28;20478;-65
2021/12/12 11:57:18;;;;;;;17.85;10.73;;;7.60;99.90;;;;;;5017138;28;20474;-65
2021/12/12 12:00:04;;;;;;;21.90;11.10;;;7.70;99.90;;;;;;5018260;28;20034;-65
2021/12/12 12:02:45;;;;;;;20.70;11.48;;;7.70;99.90;;;;;;4999329;28;20099;-65
2021/12/12 12:05:32;;;;;;;21.73;11.57;;;7.80;99.90;;;;;;5010987;28;20053;-65
2021/12/12 12:08:20;;;;;;;19.67;12.02;;;7.80;99.90;;;;;;5013954;28;20076;-64
2021/12/12 12:11:18;;;;;;;21.33;11.68;;;7.80;99.90;;;;;;5014884;28;20149;-65
2021/12/12 12:13:54;;;;;;;22.60;13.30;;;7.80;99.90;;;;;;5016601;28;20060;-65
2021/12/12 12:16:49;;;;;;;22.08;12.68;;;7.90;99.90;;;;;;5014418;28;20029;-64
2021/12/12 12:19:52;;;;;;;23.58;13.10;;;7.90;99.90;;;;;;5014753;28;20164;-64
2021/12/12 12:22:28;;;;;;;22.27;13.73;;;7.90;99.90;;;;;;5016239;28;20037;-64
2021/12/12 12:25:13;;;;;;;22.95;13.75;;;8.00;99.90;;;;;;5018996;28;20339;-64
2021/12/12 12:27:43;;;;;;;31.55;16.60;;;8.00;99.90;;;;;;5021152;28;20056;-64
2021/12/12 12:30:27;;;;;;;23.25;15.55;;;8.00;99.90;;;;;;5014652;28;20357;-63
2021/12/12 12:33:30;;;;;;;22.02;13.75;;;8.00;99.90;;;;;;5010070;28;20044;-64
2021/12/12 12:36:23;;;;;;;20.98;13.38;;;8.00;99.90;;;;;;5010873;28;20037;-64
2021/12/12 12:39:10;;;;;;;14.07;10.00;;;8.10;99.90;;;;;;5012029;28;20124;-64
2021/12/12 12:42:01;;;;;;;22.02;13.50;;;8.10;99.90;;;;;;5018789;28;20037;-64
2021/12/12 12:45:04;;;;;;;23.92;14.23;;;8.10;99.90;;;;;;5012441;28;20640;-64
2021/12/12 12:47:44;;;;;;;19.58;12.95;;;8.00;99.90;;;;;;5016925;28;20078;-64
2021/12/12 12:50:42;;;;;;;25.13;13.30;;;8.10;99.90;;;;;;5009558;28;20620;-64
2021/12/12 12:53:13;;;;;;;20.20;13.30;;;8.10;99.90;;;;;;5014027;28;20136;-64
2021/12/12 12:56:05;;;;;;;22.73;13.93;;;8.10;99.90;;;;;;5014442;28;20505;-64
2021/12/12 12:58:55;;;;;;;22.30;14.10;;;8.20;99.90;;;;;;5008368;28;20077;-64
2021/12/12 13:01:50;;;;;;;24.80;15.07;;;8.20;99.90;;;;;;5016814;28;20049;-64
2021/12/12 13:04:30;;;;;;;23.95;16.48;;;8.20;99.90;;;;;;5008166;28;20473;-63
2021/12/12 13:07:10;;;;;;;19.95;14.10;;;8.20;99.90;;;;;;5016038;28;20030;-64
2021/12/12 13:10:00;;;;;;;19.15;15.02;;;8.30;99.90;;;;;;5010413;28;20185;-64
2021/12/12 13:12:51;;;;;;;23.60;15.55;;;8.20;99.90;;;;;;5016729;28;20030;-63
2021/12/12 13:15:16;;;;;;;25.60;17.20;;;8.30;99.90;;;;;;5009471;28;20469;-64
2021/12/12 13:18:16;;;;;;;28.10;17.58;;;8.30;99.90;;;;;;5006152;28;20030;-63
2021/12/12 13:21:26;;;;;;;25.60;18.00;;;8.40;99.90;;;;;;5009313;28;20103;-64
2021/12/12 13:23:57;;;;;;;21.42;14.95;;;8.40;99.90;;;;;;5012517;28;20369;-64
2021/12/12 13:26:53;;;;;;;22.38;15.63;;;8.40;99.90;;;;;;5007964;28;20034;-64
2021/12/12 13:29:52;;;;;;;24.63;14.50;;;8.40;99.90;;;;;;5010476;28;20299;-64
2021/12/12 13:32:27;;;;;;;21.58;15.57;;;8.40;99.90;;;;;;5014666;28;20464;-64
2021/12/12 13:35:21;;;;;;;25.90;16.45;;;8.40;99.90;;;;;;5009432;28;20109;-64
2021/12/12 13:38:02;;;;;;;;;;;8.40;99.90;;;;;;5011668;28;20037;-64
2021/12/12 13:41:07;;;;;;;23.65;15.90;;;8.40;99.90;;;;;;5015457;28;19920;-64